空港情報

日本の空港の気象及び、管制情報です。
気象情報はより詳細な情報が取得できる「AVIATION WEATER CENTER」 から取得しているため、VATSIMの気象情報と若干のタイムラグが生じることがあります。

VRCのフィールド設定用空港一覧はこちらをご覧ください。

RJCG Sapporo Control

RJCW / Wakkanai
IMC

NO RADAR

RADIO

08/26 2200x45

民間 civil

2000

300@23KT

29.94

RJCW 240400Z 30023KT 2000 R08/0800VP2000D BLSN -SHSN FEW005 SCT015 BKN020 M06/M10 Q1014

RJER / Rishiri

NO RADAR

REMOTE

25/07 1800x45

民間 civil

過去5時間に発表されたMETARがありません。

RJEB / Monbetsu
VMC

NO RADAR

REMOTE

32/14 2000x45

民間 civil

9999

290@20KT

29.88

RJEB 240400Z 29020KT 9999 FEW015 SCT040 M03/M09 Q1012

RJCM / Memanbetsu
VMC

NO RADAR

TOWER

36/18 2500x45

民間 civil

9999

360@8KT

29.88

RJCM 240400Z 36008KT 320V030 9999 FEW015 BKN030 M02/M06 Q1012

RJEC / Asahikawa
IMC

NO RADAR

TOWER

34/16 2500x60

民間 civil

2300

290@13KT

29.94

RJEC 240400Z 29013KT 2300 R34/0800VP2000D -SHSN FEW005 SCT010 BKN020 M06/M08 Q1014

RJCN / Nakashibetsu
IMC

NO RADAR

RADIO

08/26 2000x45

民間 civil

3100

320@8KT

29.82

RJCN 240400Z 32008KT 3100 R08/1400VP2000D -SHSN FEW003 BKN005 BKN009 M01/M03 Q1010

RJCK / Kushiro
VMC

NO RADAR

TOWER

17/35 2500x45

民間 civil

9999

270@14G24KT

29.82

RJCK 240400Z 27014G24KT 230V300 9999 FEW015 SCT040 02/M08 Q1010

RJCO / Sapporo
VMC

RJCO_APP

TOWER

14/32 1500x30

共用 dual

9999

300@22G32KT

30.06

RJCO 240400Z 30022G32KT 9999 -SHSN BLSN FEW010 SCT015 BKN035 M03/M11 Q1018

RJCJ / Chitose

RJCC_APP

TOWER

36R/18L 3000x60
36L/18R 2700x45

自衛隊 military

過去5時間に発表されたMETARがありません。

RJCC / NewChitose
VMC

RJCC_APP

TOWER

01L/19R 3000x60
01R/19L 3000x60

民間 civil

9999

330@19KT

30.03

RJCC 240400Z 33019KT 9999 FEW015 M02/M09 Q1017 RMK 1ST015 A3005

RJCB / Obihiro
VMC

NO RADAR

TOWER

35/17 2500x45

民間 civil

9999

340@16KT

29.85

RJCB 240400Z 34016KT 9999 FEW030 M01/M08 Q1011

RJEO / Okushiri

NO RADAR

REMOTE

12/30 1500x45

民間 civil

過去5時間に発表されたMETARがありません。

RJCH / Hakodate
VMC

RJCH_APP

TOWER

12/30 3000x45

民間 civil

9999

270@20KT

30.09

RJCH 240400Z 27020KT 9999 FEW030 00/M09 Q1019

RJSA / Aomori
VMC

NO RADAR

TOWER

24/06 3000x60

民間 civil

9000

280@9KT

30.12

RJSA 240400Z 28009KT 230V330 9000 -SHSN FEW002 SCT020 BKN035 M02/M05 Q1020

RJSO / Ominato
VMC

RJSM_APP

TOWER

04/22 600x45

自衛隊 military

5000

260@7KT

30.09

RJSO 240012Z 26007KT 230V290 5000 -SHRA BR FEW010 BKN015 BKN025 02/01 Q1019 RMK 2ST010 5CU015 7CU025 A3010

RJSM / Misawa
VMC

RJSM_APP

TOWER

10/28 3050x45

共用 dual

9999

290@20KT

30.09

RJSM 240400Z 29020KT 9999 -SHSN FEW008 BKN015 BKN025 01/M02 Q1019

RJSH / Hachinohe
VMC

RJSM_APP

TOWER

25/07 2250x45

自衛隊 military

9999

280@12G22KT

30.06

RJSH 240154Z 28012G22KT 250V310 9999 FEW020 SCT040 BKN050 06/M03 Q1018 RMK 1CU020 4CU040 7SC050 A3008

RJSK / Akita
IMC

NO RADAR

TOWER

10/28 2500x60

民間 civil

3000

330@11KT

30.15

RJSK 240400Z 33011KT 290V360 3000 -SHSNRA BR FEW002 BKN004 BKN008 01/01 Q1021

RJSI / Hanamaki
VMC

NO RADAR

RADIO

20/02 2500x45

民間 civil

9999

280@8KT

30.06

RJSI 240400Z 28008KT 180V310 9999 -SHRA FEW030 07/00 Q1018

RJSR / Odate-Noshiro
VMC

NO RADAR

REMOTE

11/29 2000x45

民間 civil

8000

250@11KT

30.15

RJSR 240400Z 25011KT 8000 -SHSNRA FEW005 SCT015 BKN020 01/01 Q1021

RJTG Tokyo Control

RJSY / Shonai
VMC

NO RADAR

RADIO

09/27 2000x45

民間 civil

9999

320@15G25KT

30.18

RJSY 240400Z 32015G25KT 290V360 9999 -SHRA FEW005 SCT015 BKN020 06/03 Q1022

RJSC / Yamagata
IMC

NO RADAR

RADIO

01/19 2000x45

民間 civil

4000

000@2KT

30.12

RJSC 240400Z VRB02KT 4000 -SHRA BCFG BR FEW002 SCT004 BKN040 05/04 Q1020

RJST / Matsushima

RJSS_APP

TOWER

07/25 2071x46
15/33 1500x46

自衛隊 military

過去5時間に発表されたMETARがありません。

RJSS / Sendai
VMC

RJSS_APP

TOWER

27/09 3000x45
12/30 1200x45

民間 civil

9999

010@3KT

30.12

RJSS 240400Z 01003KT 330V040 9999 FEW020 SCT040 BKN050 08/04 Q1020

RJSD / Sado
VMC

NO RADAR

REMOTE

10/28 890x25

民間 civil

9999

000@2KT

30.24

RJSD 240400Z AUTO VRB02KT 9999 -RA BKN019 BKN025 OVC070 07/04 Q1024

RJSN / Niigata
VMC

RJSN_APP

TOWER

10/28 2500x45
04/22 1314x45

民間 civil

8000

320@13KT

30.21

RJSN 240400Z 32013KT 8000 -SHRA FEW010 SCT020 BKN030 08/05 Q1023

RJSF / Fukushima
VMC

NO RADAR

RADIO

01/19 2500x60

民間 civil

9999

280@11KT

30.09

RJSF 240400Z 28011KT 250V310 9999 FEW020 SCT045 BKN050 10/00 Q1019

RJAH / Ibaraki/Hyakuri
VMC

RJAH_APP

TOWER

03L/21R 2700x45
03R/21L 2700x45

共用 dual

9999

000@2KT

30.12

RJAH 240400Z VRB02KT 9999 FEW025 BKN030 BKN210 13/05 Q1020

RJTT / Tokyo
VMC

RJTT_APP

TOWER

34LR/16RL 3000x60
04/22&05/23 2500x60

民間 civil

9999

030@2KT

30.15

RJTT 240400Z 03002KT 9999 FEW015 BKN033 12/08 Q1021 NOSIG RMK 1CU015 7SC033 A3015

RJAA / Narita
VMC

RJTT_APP

TOWER

34L/16R 4000x60
34R/16L 2500x60

民間 civil

9999

040@3KT

30.12

RJAA 240400Z 04003KT 350V080 9999 FEW015 BKN020 BKN060 13/09 Q1020 NOSIG RMK 1CU015 5CU020 7SC060 A3014

RJTL / Shimofusa

RJTT_APP

TOWER

19/01 2250x45

自衛隊 military

過去5時間に発表されたMETARがありません。

RJTE / Tateyama

RJTT_APP

TOWER

09/27 300x45

自衛隊 military

過去5時間に発表されたMETARがありません。

RJTO / Oshima
VMC

NO RADAR

RADIO

03/21 1800x45

民間 civil

9999

040@8KT

30.12

RJTO 240400Z 04008KT 010V070 9999 FEW012 BKN040 14/11 Q1020

RJTK / Kisarazu
VMC

NO RADAR

TOWER

02/20 1830x45

自衛隊 military

7000

050@3KT

30.18

RJTK 232346Z 05003KT 7000 FEW025 BKN050 09/08 Q1022 RMK 1CU025 7SC050 A3020

RJAN / Niijima

NO RADAR

REMOTE

11/29 800x25

自衛隊 military

過去5時間に発表されたMETARがありません。

RJAZ / Kozushima

NO RADAR

REMOTE

11/29 800x25

民間 civil

過去5時間に発表されたMETARがありません。

RJTH / Hachijojima

NO RADAR

RADIO

26/08 2000x45

民間 civil

過去5時間に発表されたMETARがありません。

RJTF / Chofu
VMC

NO RADAR

Flight Service

35/17 800x30

民間 civil

8000

010@3KT

30.15

RJTF 240400Z 01003KT 330V050 8000 FEW020 SCT030 BKN045 13/07 Q1021

RJTQ / Miyake

NO RADAR

REMOTE

02/20 1200x30

民間 civil

過去5時間に発表されたMETARがありません。

RJTC / Tachikawa

NO RADAR

TOWER

01/19 900x45

自衛隊 military

過去5時間に発表されたMETARがありません。

RJTA / Atsugi

NO RADAR

TOWER

01/19 2438x45

自衛隊 military

過去5時間に発表されたMETARがありません。

RJTU / Utsunomiya
VMC

RJTY_APP

TOWER

01/19 1700x45

自衛隊 military

9999

200@4KT

30.15

RJTU 240332Z 20004KT 160V300 9999 FEW025 BKN240 12/05 Q1021 RMK 1CU025 6CI240 A3016

RJTJ / Iruma

RJTY_APP

TOWER

17/35 2000x45

自衛隊 military

過去5時間に発表されたMETARがありません。

RJTY / Yokota
VMC

RJTY_APP

TOWER

18/36 3353x60

自衛隊 military

9999

120@3KT

30.18

RJTY 240356Z AUTO 12003KT 10SM OVC025 12/07 A3018 RMK AO2 OVC V BKN SLP227 T01180069 FZRANO $

RJAF / Matsumoto
VMC

NO RADAR

RADIO

18/36 2000x45

民間 civil

9999

360@8KT

30.15

RJAF 240400Z 36008KT 9999 FEW015 SCT020 BKN160 08/03 Q1021

RJNS / Shizuoka
VMC

NO RADAR

RADIO

30/12 2500x60

民間 civil

9999

200@5KT

30.09

RJNS 240400Z 20005KT 170V250 9999 FEW015 SCT130 BKN160 14/10 Q1019

RJNY / Yaizu-Shizuhama
VMC

NO RADAR

TOWER

27/09 1500x45

自衛隊 military

9999

260@5KT

30.12

RJNY 240326Z 26005KT 220V290 9999 FEW010 SCT025 BKN160 15/11 Q1020 RMK 1CU010 4CU025 5AC160 A3014

RJNH / Hamamatsu

RJNH_APP

TOWER

09/27 2550x60

自衛隊 military

過去5時間に発表されたMETARがありません。

RJGG / Chubu
VMC

RJGG_APP

TOWER

36/18 3500x60

民間 civil

9999

320@18KT

30.18

RJGG 240400Z 32018KT 9999 FEW020 BKN150 BKN/// 13/06 Q1022 NOSIG

RJNA / Nagoya

RJGG_APP

TOWER

34/16 2740x45

民間 civil

過去5時間に発表されたMETARがありません。

RJNG / Gifu
VMC

RJGG_APP

TOWER

28/10 2710x46

自衛隊 military

9999

300@3KT

30.21

RJNG 240240Z 30003KT 260V360 9999 FEW025 SCT170 BKN220 14/05 Q1023 RMK 1CU025 4AC170 A3022

RJOE / Akeno

RJOE_APP

TOWER

13/31 500x30
04/22 500x30

自衛隊 military

過去5時間に発表されたMETARがありません。

RJNK / Komatsu
VMC

RJNK_APP

TOWER

06/24 2700x45

共用 dual

9999

360@13KT

30.27

RJNK 240400Z 36013KT 320V020 9999 FEW010 BKN030 BKN050 12/06 Q1025

RJNW / Noto
VMC

NO RADAR

RADIO

25/07 2000x45

民間 civil

9999

330@7KT

30.27

RJNW 240400Z 33007KT 280V050 9999 -SHRA FEW005 SCT010 BKN015 07/05 Q1025

RJNT / Toyama
VMC

NO RADAR

TOWER

20/02 2000x45

民間 civil

9999

250@6KT

30.24

RJNT 240400Z 25006KT 9999 -SHRA FEW020 BKN060 12/06 Q1024

RJNF / Fukui

NO RADAR

REMOTE

18/36 1200x30

民間 civil

過去5時間に発表されたMETARがありません。

RJBD / Nanki-Shirahama
VMC

NO RADAR

RADIO

15/33 2000x45

民間 civil

9999

340@10KT

30.18

RJBD 240400Z 34010KT 9999 FEW020 SCT050 BKN110 13/08 Q1022

RJOY / Yao
VMC

RJBB_APP

TOWER

27/09 1490x45
13/31 1200x30

民間 civil

9999

360@6KT

30.24

RJOY 240400Z 36006KT 310V040 9999 FEW020 SCT035 BKN130 14/08 Q1024

RJOO / Osaka
VMC

RJBB_APP

TOWER

32L/14R 3000x60
32R/14L 1830x45

民間 civil

9999

360@9KT

30.24

RJOO 240400Z 36009KT 9999 FEW025 SCT120 BKN140 13/07 Q1024 RMK 1CU025 3AC120 6AC140 A3025

RJOB / Okayama
VMC

RJBB_APP

TOWER

07/25 3000x45

民間 civil

9999

050@8KT

30.24

RJOB 240400Z 05008KT 9999 FEW015 SCT025 BKN035 12/06 Q1024

RJBB / Kansai
VMC

RJBB_APP

TOWER

06R/24L 3500x60
06L/24R 4000x60

民間 civil

9999

040@5KT

30.24

RJBB 240400Z 04005KT 9999 FEW020 BKN140 14/09 Q1024 NOSIG

RJBE / Kobe
VMC

RJBB_APP

TOWER

09/27 2500x60

民間 civil

9999

350@9KT

30.24

RJBE 240400Z 35009KT 320V020 9999 FEW025 SCT035 BKN120 13/06 Q1024

RJBT / Tajima
VMC

NO RADAR

REMOTE

01/19 1200x30

民間 civil

9999

360@5KT

30.27

RJBT 240400Z 36005KT 320V040 9999 FEW020 SCT030 BKN040 10/06 Q1025

RJOR / Tottori
VMC

NO RADAR

RADIO

10/28 2000x45

民間 civil

9999

010@8KT

30.30

RJOR 240400Z 01008KT 9999 FEW030 SCT040 BKN060 12/05 Q1026

RJNO / Oki

NO RADAR

REMOTE

07/25 2000x45

民間 civil

過去5時間に発表されたMETARがありません。

RJOH / Miho
VMC

RJOH_APP

TOWER

25/07 2500x45

共用 dual

9999

030@8KT

30.30

RJOH 240400Z 03008KT 9999 FEW025 BKN050 BKN080 13/04 Q1026

RJOC / Izumo
VMC

RJOH_APP

RADIO

07/25 2000x45

共用 dual

9999

090@4KT

30.30

RJOC 240400Z 09004KT 9999 FEW020 SCT040 BKN050 12/07 Q1026

RJDG Fukuoka Control

RJOT / Takamatsu
VMC

RJBB_APP

TOWER

26/08 2500x60

民間 civil

9999

350@5KT

30.24

RJOT 240400Z 35005KT 300V040 9999 FEW015 SCT040 BKN120 13/08 Q1024

RJOK / Kochi
VMC

RJBB_APP

TOWER

32/14 2500x45

民間 civil

9999

350@10KT

30.15

RJOK 240400Z 35010KT 9999 FEW025 BKN100 17/08 Q1021

RJOS / Tokushima
VMC

RJOS_APP

TOWER

29/11 2500x45

共用 dual

9999

020@11KT

30.24

RJOS 240400Z 02011KT 9999 FEW012 BKN120 13/09 Q1024

RJOA / Hiroshima
VMC

RJOA_APP

TOWER

10/28 3000x60

民間 civil

9999

020@6KT

30.24

RJOA 240400Z 02006KT 9999 FEW015 BKN025 BKN150 12/05 Q1024

RJBH / Hiroshimanishi

NO RADAR

Flight Service

04/22 1800x45

民間 civil

過去5時間に発表されたMETARがありません。

RJOI / Iwakuni
VMC

RJOI_APP

TOWER

02/20 2440x60

共用 dual

9999

010@5KT

30.24

RJOI 240355Z 01005KT 9999 FEW020 BKN130 BKN230 16/09 A3024 RMK SLP240 T01560089

RJOM / Matsuyama
VMC

RJOI_APP

TOWER

14/32 2500x45

民間 civil

9999

360@10KT

30.21

RJOM 240400Z 36010KT 9999 FEW020 BKN120 16/10 Q1023

RJOZ / Ozuki

RJFZ_APP

TOWER

35/17 1201x61
12/30 899x46

自衛隊 military

過去5時間に発表されたMETARがありません。

RJOF / Hofu
VMC

RJFZ_APP

TOWER

30/12 1180x60
01/19 1480x45

自衛隊 military

9999

000@4KT

30.24

RJOF 240303Z VRB04KT 9999 FEW020 SCT030 BKN130 15/10 Q1024 RMK 1CU020 3CU030 5AC130 A3025

RJDC / Yamaguchi-Ube
VMC

RJFZ_APP

RADIO

07/25 2500x45

民間 civil

9999

010@9KT

30.21

RJDC 240400Z 01009KT 330V040 9999 FEW015 SCT025 BKN140 16/10 Q1023

RJFR / Kitakyushu
VMC

RJFZ_APP

TOWER

18/36 2500x60

民間 civil

9999

360@10KT

30.24

RJFR 240400Z 36010KT 9999 FEW020 SCT030 BKN120 15/09 Q1024

RJFZ / Tsuiki

RJFZ_APP

TOWER

25/07 2399x46

自衛隊 military

過去5時間に発表されたMETARがありません。

RJOW / Iwami
VMC

NO RADAR

REMOTE

11/29 2000x45

民間 civil

9999

040@7KT

30.27

RJOW 240400Z 04007KT 350V100 9999 FEW015 SCT020 BKN030 13/09 Q1025

RJDT / Tsushima
VMC

NO RADAR

REMOTE

32/14 1900x45

民間 civil

9999

040@6KT

30.27

RJDT 240400Z 04006KT 360V090 9999 FEW025 SCT030 BKN140 13/03 Q1025

RJFF / Fukuoka
VMC

RJFF_APP

TOWER

16/34 2800x60

民間 civil

9999

010@11KT

30.24

RJFF 240400Z 01011KT 340V060 9999 FEW020 SCT030 BKN110 15/10 Q1024 NOSIG RMK 1CU020 3CU030 6AC110 A3024

RJFS / Saga
VMC

RJFF_APP

RADIO

29/11 2000x45

民間 civil

9999

040@10KT

30.21

RJFS 240400Z 04010KT 9999 FEW025 SCT035 BKN100 16/10 Q1023

RJFA / Ashiya

RJFF_APP

TOWER

12/30 1640x46

自衛隊 military

過去5時間に発表されたMETARがありません。

RJDB / Iki

RJFF_APP

REMOTE

20/02 1200x30

民間 civil

過去5時間に発表されたMETARがありません。

RJFO / Oita
VMC

RJFO_APP

TOWER

01/19 3000x45

民間 civil

9999

020@8KT

30.21

RJFO 240400Z 02008KT 9999 FEW020 BKN100 15/08 Q1023

RJFU / Nagasaki
VMC

RJFU_APP

TOWER

32/14 3000x60

民間 civil

9999

340@10KT

30.18

RJFU 240400Z 34010KT 9999 FEW030 SCT100 BKN110 16/11 Q1022

RJDU / Omura

RJFU_APP

TOWER

18/36 1200x30

自衛隊 military

過去5時間に発表されたMETARがありません。

RJFE / Fukue
VMC

NO RADAR

RADIO

03/21 2000x45

民間 civil

9999

020@11KT

30.24

RJFE 240400Z 02011KT 9999 FEW020 BKN080 16/10 Q1024

RJDO / Ojika

NO RADAR

REMOTE

03/21 800x30

民間 civil

過去5時間に発表されたMETARがありません。

RJDK / Kamigoto
VMC

NO RADAR

REMOTE

17/35 800x30

民間 civil

9999

000@8G18KT

30.24

RJDK 240400Z AUTO VRB08G18KT 9999 FEW019 BKN100 15/10 Q1024

RJDA / Amakusa

NO RADAR

Flight Service

31/13 1000x30

民間 civil

過去5時間に発表されたMETARがありません。

RJFT / Kumamoto
VMC

RJFT_APP

TOWER

07/25 3000x45

民間 civil

9999

350@3KT

30.21

RJFT 240400Z 35003KT 300V030 9999 FEW015 BKN070 BKN100 15/11 Q1023

RJFN / Nyutabaru

RJFM_APP

TOWER

28/10 2701x46

自衛隊 military

過去5時間に発表されたMETARがありません。

RJFM / Miyazaki
VMC

RJFM_APP

TOWER

27/09 2500x45

民間 civil

9999

040@9KT

30.18

RJFM 240400Z 04009KT 9999 FEW020 BKN030 BKN050 17/11 Q1022

RJFK / Kagoshima
VMC

RJFK_APP

TOWER

34/16 3000x45

民間 civil

9999

000@2KT

30.18

RJFK 240400Z VRB02KT 9999 FEW008 SCT015 BKN050 16/13 Q1022 RMK 1ST008 3CU015 6SC050 A3018

RJFY / Kanoya
VMC

RJFY_APP

TOWER

26L/08R 2250x45
26R/08L 1200x40

自衛隊 military

5000

030@3KT

30.21

RJFY 240243Z 03003KT 5000 BCFG BR SCT001 BKN045 15/14 Q1023 RMK 3ST001 7SC045 A3022 FG E AND S

RJFG / Tanegashima
VMC

NO RADAR

RADIO

31/13 2000x45

民間 civil

9999

060@3KT

30.15

RJFG 240400Z 06003KT 340V150 9999 -SHRA FEW002 SCT010 BKN050 16/15 Q1021

RJFC / Yakushima

NO RADAR

REMOTE

14/32 1500x45

民間 civil

過去5時間に発表されたMETARがありません。

RJBG Kobe Control

ROAH / Naha
VMC

ROAH_APP

TOWER

36/18 3000x45

共用 dual

9999

250@3KT

30.12

ROAH 240400Z 25003KT 200V290 9999 FEW025 SCT/// 24/20 Q1020 RMK 2CU025 A3014

RORA / Aguni

ROAH_APP

REMOTE

01/19 800x25

民間 civil

過去5時間に発表されたMETARがありません。

ROKJ / Kumejima

ROAH_APP

REMOTE

03/21 2000x45

民間 civil

過去5時間に発表されたMETARがありません。

RODN / Kadena
VMC

ROAH_APP

TOWER

05L/23R 3688x91
05R/23L 3688x61

自衛隊 military

9999

260@4KT

30.15

RODN 240356Z AUTO 26004KT 10SM CLR 25/19 A3015 RMK AO2 SLP216 T02450186 $

ROTM / Futenma
VMC

ROAH_APP

TOWER

06/24 2740x45

自衛隊 military

9999

000@0KT

30.16

ROTM 240356Z 00000KT 10SM CLR 23/18 A3016 RMK AO2 SLP198 T02330178 $

RORS / Shimojishima
VMC

RORS_APP

TOWER

17/35 3000x60

民間 civil

9999

150@6KT

30.12

RORS 240400Z 15006KT 110V190 9999 FEW023 26/19 Q1020

ROMY / Miyako
VMC

RORS_APP

TOWER

04/22 2000x45

民間 civil

9999

170@6KT

30.12

ROMY 240400Z 17006KT 140V220 9999 FEW025 26/18 Q1020

ROIG / New Ishigaki
VMC

RORS_APP

TOWER

22/04 2000x45

民間 civil

9999

090@7KT

30.12

ROIG 240400Z 09007KT 060V120 9999 FEW020 25/20 Q1020

RORT / Tarama

RORS_APP

REMOTE

36/18 1500x45

民間 civil

過去5時間に発表されたMETARがありません。

RJKA / Amami
VMC

NO RADAR

RADIO

03/21 2000x45

民間 civil

9999

220@8KT

30.12

RJKA 240400Z 22008KT 9999 FEW010 SCT015 BKN070 23/20 Q1020

RJKI / Kikai
VMC

NO RADAR

REMOTE

07/25 1200x30

民間 civil

9999

210@8KT

30.12

RJKI 240400Z AUTO 21008KT 170V250 9999 FEW011 23/20 Q1020

RJKN / Tokunoshima

NO RADAR

REMOTE

19/01 2000x45

民間 civil

過去5時間に発表されたMETARがありません。

RJKB / Okierabu

NO RADAR

REMOTE

04/22 1350x45

民間 civil

過去5時間に発表されたMETARがありません。

RORY / Yoron
VMC

NO RADAR

REMOTE

32/14 1320x30

民間 civil

9999

180@5KT

30.12

RORY 240400Z AUTO 18005KT 130V240 9999 NCD 24/17 Q1020

RORK / Kitadaito
VMC

NO RADAR

REMOTE

03/21 1500x45

民間 civil

9999

130@7KT

30.12

RORK 240400Z AUTO 13007KT 9999 NSC 25/21 Q1020

ROMD / Minami-daito
VMC

NO RADAR

REMOTE

02/20 1500x45

民間 civil

9999

130@4KT

30.12

ROMD 240400Z AUTO 13004KT 080V190 9999 NSC 25/21 Q1020

ROYN / Yonaguni
VMC

NO RADAR

REMOTE

26/08 2000x45

民間 civil

9999

120@9KT

30.09

ROYN 240400Z AUTO 12009KT 090V160 9999 SCT022 25/20 Q1019

RORH / Hateruma

NO RADAR

REMOTE

02/20 800x25

民間 civil

過去5時間に発表されたMETARがありません。

ROKR / Kerama

NO RADAR

REMOTE

02/20 800x25

民間 civil

過去5時間に発表されたMETARがありません。